createdAt,value
2023-07-14T00:00:08.627Z,52.5
2023-07-14T00:05:08.908Z,52.52
2023-07-14T00:10:08.908Z,52.51
2023-07-14T00:15:08.858Z,52.53
2023-07-14T00:20:08.870Z,52.52
2023-07-14T00:25:08.844Z,52.5
2023-07-14T00:30:08.828Z,52.51
2023-07-14T00:35:08.821Z,52.51
2023-07-14T00:40:08.845Z,52.51
2023-07-14T00:45:08.879Z,52.5
2023-07-14T00:50:08.906Z,52.51
2023-07-14T00:55:08.924Z,52.51
2023-07-14T01:00:08.906Z,52.52
2023-07-14T01:05:08.720Z,52.51
2023-07-14T01:10:08.728Z,52.5
2023-07-14T01:15:08.772Z,52.52
2023-07-14T01:20:08.938Z,52.52
2023-07-14T01:25:07.905Z,52.53
2023-07-14T01:30:08.850Z,52.54
2023-07-14T01:35:08.952Z,52.55
2023-07-14T01:40:08.123Z,52.53
2023-07-14T01:45:08.184Z,52.55
2023-07-14T01:50:08.180Z,52.55
2023-07-14T01:55:08.155Z,52.57
2023-07-14T02:00:08.141Z,52.58
2023-07-14T02:05:08.120Z,52.6
2023-07-14T02:10:08.111Z,52.6
2023-07-14T02:15:08.088Z,52.6
2023-07-14T02:20:08.102Z,52.6
2023-07-14T02:25:08.085Z,52.63
2023-07-14T02:30:08.068Z,52.63
2023-07-14T02:35:08.049Z,52.67
2023-07-14T02:40:08.073Z,52.68
2023-07-14T02:45:08.094Z,52.69
2023-07-14T02:50:08.109Z,52.72
2023-07-14T02:55:08.094Z,52.72
2023-07-14T03:00:09.173Z,52.75
2023-07-14T03:05:08.161Z,52.76
2023-07-14T03:10:08.158Z,52.78
2023-07-14T03:15:08.122Z,52.81
2023-07-14T03:20:08.104Z,52.81
2023-07-14T03:25:08.122Z,52.83
2023-07-14T03:30:08.116Z,52.85
2023-07-14T03:35:08.269Z,52.87
2023-07-14T03:40:08.277Z,52.87
2023-07-14T03:45:08.312Z,52.87
2023-07-14T03:50:08.292Z,52.85
2023-07-14T03:55:08.283Z,52.86
2023-07-14T04:00:08.336Z,52.87
2023-07-14T04:05:02.458Z,52.88
2023-07-14T04:10:03.162Z,52.88
2023-07-14T04:15:02.409Z,52.88
2023-07-14T04:20:05.706Z,52.89
2023-07-14T04:25:03.205Z,52.9
2023-07-14T04:30:02.438Z,52.94
2023-07-14T04:35:02.595Z,52.95
2023-07-14T04:40:02.670Z,52.96
2023-07-14T04:45:02.855Z,52.96
2023-07-14T04:50:03.031Z,52.97
2023-07-14T04:55:02.489Z,53.0
2023-07-14T05:00:02.754Z,52.97
2023-07-14T05:05:03.289Z,52.98
2023-07-14T05:10:02.356Z,52.96
2023-07-14T05:15:02.437Z,52.96
2023-07-14T05:20:02.598Z,52.86
2023-07-14T05:25:02.793Z,52.81
2023-07-14T05:30:03.006Z,52.74
2023-07-14T05:35:02.065Z,52.71
2023-07-14T05:40:02.267Z,52.61
2023-07-14T05:45:02.315Z,52.56
2023-07-14T05:50:02.759Z,52.48
2023-07-14T05:55:03.101Z,52.39
2023-07-14T06:00:02.289Z,52.31
2023-07-14T06:05:02.409Z,52.23
2023-07-14T06:10:02.820Z,52.19
2023-07-14T06:15:03.048Z,52.13
2023-07-14T06:20:02.129Z,52.08
2023-07-14T06:25:02.368Z,52.03
2023-07-14T06:30:02.653Z,51.99
2023-07-14T06:35:02.924Z,51.94
2023-07-14T06:40:02.210Z,51.91
2023-07-14T06:45:02.310Z,51.89
2023-07-14T06:50:02.624Z,51.86
2023-07-14T06:55:02.807Z,51.8
2023-07-14T07:00:02.981Z,51.8
2023-07-14T07:05:02.058Z,51.8
2023-07-14T07:10:04.177Z,51.76
2023-07-14T07:15:02.438Z,51.73
2023-07-14T07:20:02.528Z,51.7
2023-07-14T07:25:02.717Z,51.7
2023-07-14T07:30:04.786Z,51.63
2023-07-14T07:35:03.067Z,51.6
2023-07-14T07:40:02.181Z,51.57
2023-07-14T07:45:02.306Z,51.56
2023-07-14T07:50:02.492Z,51.53
2023-07-14T07:55:02.798Z,51.51
2023-07-14T08:00:02.928Z,51.51
2023-07-14T08:05:02.182Z,51.47
2023-07-14T08:10:02.343Z,51.45
2023-07-14T08:15:02.402Z,51.44
2023-07-14T08:20:02.529Z,51.4
2023-07-14T08:25:02.745Z,51.36
2023-07-14T08:30:03.110Z,51.32
2023-07-14T08:35:02.327Z,51.27
2023-07-14T08:40:02.721Z,51.2
2023-07-14T08:45:02.747Z,51.14
2023-07-14T08:50:02.815Z,51.09
2023-07-14T08:55:03.298Z,50.95
2023-07-14T09:00:02.357Z,50.95
2023-07-14T09:05:11.183Z,50.83
2023-07-14T09:10:02.449Z,50.83
2023-07-14T09:15:12.821Z,50.78
2023-07-14T09:20:03.138Z,50.69
2023-07-14T09:25:02.339Z,50.64
2023-07-14T09:30:02.470Z,50.61
2023-07-14T09:35:02.636Z,50.55
2023-07-14T09:40:02.759Z,50.55
2023-07-14T09:45:02.843Z,50.49
2023-07-14T09:50:02.927Z,50.44
2023-07-14T09:55:02.038Z,50.42
2023-07-14T10:00:02.512Z,50.41
2023-07-14T10:05:02.739Z,50.41
2023-07-14T10:10:03.347Z,50.37
2023-07-14T10:15:02.532Z,50.39
2023-07-14T10:20:02.712Z,50.38
2023-07-14T10:25:02.841Z,50.34
2023-07-14T10:30:12.963Z,50.27
2023-07-14T10:35:02.294Z,50.24
2023-07-14T10:40:02.493Z,50.14
2023-07-14T10:45:02.633Z,50.06
2023-07-14T10:50:02.946Z,49.95
2023-07-14T10:55:02.038Z,49.82
2023-07-14T11:00:02.447Z,49.69
2023-07-14T11:05:02.741Z,49.58
2023-07-14T11:10:02.882Z,49.48
2023-07-14T11:15:10.102Z,49.37
2023-07-14T11:20:09.531Z,49.31
2023-07-14T11:25:02.622Z,49.24
2023-07-14T11:30:02.922Z,49.23
2023-07-14T11:35:02.073Z,49.22
2023-07-14T11:40:02.214Z,49.22
2023-07-14T11:45:10.609Z,49.22
2023-07-14T11:50:02.732Z,49.25
2023-07-14T11:55:02.934Z,49.27
2023-07-14T12:00:02.043Z,49.28
2023-07-14T12:05:02.459Z,49.29
2023-07-14T12:10:02.753Z,49.27
2023-07-14T12:15:03.550Z,49.25
2023-07-14T12:20:02.699Z,49.17
2023-07-14T12:25:02.885Z,49.06
2023-07-14T12:30:03.137Z,49.02
2023-07-14T12:35:02.283Z,48.95
2023-07-14T12:40:02.468Z,48.92
2023-07-14T12:45:02.751Z,48.88
2023-07-14T12:50:02.896Z,48.88
2023-07-14T12:55:03.159Z,48.81
2023-07-14T13:00:03.151Z,48.78
2023-07-14T13:05:02.570Z,48.71
2023-07-14T13:10:02.796Z,48.65
2023-07-14T13:15:02.903Z,48.64
2023-07-14T13:20:03.030Z,48.58
2023-07-14T13:25:02.195Z,48.55
2023-07-14T13:30:02.401Z,48.49
2023-07-14T13:35:02.584Z,48.42
2023-07-14T13:40:02.958Z,48.37
2023-07-14T13:45:02.031Z,48.3
2023-07-14T13:50:02.263Z,48.26
2023-07-14T13:55:02.546Z,48.13
2023-07-14T14:00:02.898Z,48.08
2023-07-14T14:05:03.034Z,48.04
2023-07-14T14:10:02.212Z,47.97
2023-07-14T14:15:02.374Z,47.92
2023-07-14T14:20:02.454Z,47.85
2023-07-14T14:25:02.760Z,47.8
2023-07-14T14:30:03.057Z,47.79
2023-07-14T14:35:02.189Z,47.75
2023-07-14T14:40:02.837Z,47.71
2023-07-14T14:45:02.992Z,47.67
2023-07-14T14:50:02.254Z,47.64
2023-07-14T14:55:02.655Z,47.62
2023-07-14T15:00:05.460Z,47.62
2023-07-14T15:05:02.746Z,47.59
2023-07-14T15:10:02.902Z,47.5
2023-07-14T15:15:03.039Z,47.48
2023-07-14T15:20:02.258Z,47.53
2023-07-14T15:25:02.504Z,47.52
2023-07-14T15:30:02.725Z,47.51
2023-07-14T15:35:02.890Z,47.51
2023-07-14T15:40:02.995Z,47.51
2023-07-14T15:45:02.073Z,47.51
2023-07-14T15:50:02.147Z,47.51
2023-07-14T15:55:02.369Z,47.58
2023-07-14T16:00:02.535Z,47.6
2023-07-14T16:05:02.671Z,47.65
2023-07-14T16:10:02.978Z,47.65
2023-07-14T16:15:02.143Z,47.65
2023-07-14T16:20:02.269Z,47.69
2023-07-14T16:25:02.390Z,47.77
2023-07-14T16:30:02.620Z,47.77
2023-07-14T16:35:02.790Z,47.85
2023-07-14T16:40:02.903Z,47.9
2023-07-14T16:45:03.149Z,47.98
2023-07-14T16:50:02.243Z,48.03
2023-07-14T16:55:02.383Z,48.06
2023-07-14T17:00:02.535Z,48.08
2023-07-14T17:05:02.727Z,48.08
2023-07-14T17:10:02.904Z,48.1
2023-07-14T17:15:03.001Z,48.14
2023-07-14T17:20:02.281Z,48.17
2023-07-14T17:25:02.394Z,48.2
2023-07-14T17:30:02.526Z,48.24
2023-07-14T17:35:02.637Z,48.26
2023-07-14T17:40:02.779Z,48.27
2023-07-14T17:45:02.934Z,48.32
2023-07-14T17:50:02.027Z,48.36
2023-07-14T17:55:02.278Z,48.37
2023-07-14T18:00:02.457Z,48.42
2023-07-14T18:05:02.574Z,48.45
2023-07-14T18:10:02.729Z,48.46
2023-07-14T18:15:02.802Z,48.47
2023-07-14T18:20:02.974Z,48.53
2023-07-14T18:25:02.144Z,48.57
2023-07-14T18:30:02.159Z,48.61
2023-07-14T18:35:02.780Z,48.63
2023-07-14T18:40:03.783Z,48.66
2023-07-14T18:45:02.890Z,48.71
2023-07-14T18:50:02.925Z,48.72
2023-07-14T18:55:03.167Z,48.75
2023-07-14T19:00:02.300Z,48.71
2023-07-14T19:05:02.452Z,48.81
2023-07-14T19:10:02.556Z,48.84
2023-07-14T19:15:02.630Z,48.87
2023-07-14T19:20:02.740Z,48.94
2023-07-14T19:25:02.861Z,48.97
2023-07-14T19:30:02.876Z,48.99
2023-07-14T19:35:03.069Z,48.99
2023-07-14T19:40:02.195Z,49.07
2023-07-14T19:45:02.288Z,49.2
2023-07-14T19:50:02.309Z,49.2
2023-07-14T19:55:02.472Z,49.26
2023-07-14T20:00:02.624Z,49.31
2023-07-14T20:05:02.716Z,49.33
2023-07-14T20:10:02.809Z,49.38
2023-07-14T20:15:02.888Z,49.38
2023-07-14T20:20:02.951Z,49.43
2023-07-14T20:25:02.094Z,49.48
2023-07-14T20:30:02.152Z,49.52
2023-07-14T20:35:03.534Z,49.52
2023-07-14T20:40:02.657Z,49.56
2023-07-14T20:45:02.764Z,49.57
2023-07-14T20:50:02.926Z,49.59
2023-07-14T20:55:03.043Z,49.59
2023-07-14T21:00:02.316Z,49.61
2023-07-14T21:05:02.405Z,49.65
2023-07-14T21:10:02.550Z,49.65
2023-07-14T21:15:02.671Z,49.65
2023-07-14T21:20:02.756Z,49.67
2023-07-14T21:25:02.852Z,49.73
2023-07-14T21:30:02.960Z,49.74
2023-07-14T21:35:02.116Z,49.74
2023-07-14T21:40:02.253Z,49.78
2023-07-14T21:45:02.345Z,49.79
2023-07-14T21:50:02.424Z,49.79
2023-07-14T21:55:02.551Z,49.79
2023-07-14T22:00:02.716Z,49.8
2023-07-14T22:05:15.689Z,49.85
2023-07-14T22:10:08.677Z,49.87
2023-07-14T22:15:08.662Z,49.87
2023-07-14T22:20:08.626Z,49.87
2023-07-14T22:25:08.621Z,49.9
2023-07-14T22:30:08.631Z,49.91
2023-07-14T22:35:08.635Z,49.91
2023-07-14T22:40:08.645Z,49.94
2023-07-14T22:45:08.638Z,49.94
2023-07-14T22:50:08.642Z,49.99
2023-07-14T22:55:08.899Z,49.99
2023-07-14T23:01:20.107Z,49.98
2023-07-14T23:05:08.129Z,50.01
2023-07-14T23:10:08.285Z,49.98
2023-07-14T23:15:08.266Z,49.98
2023-07-14T23:20:09.480Z,49.96
2023-07-14T23:25:08.469Z,49.98
2023-07-14T23:30:08.476Z,49.98
2023-07-14T23:35:08.783Z,50.01
2023-07-14T23:40:08.807Z,50.02
2023-07-14T23:45:08.864Z,49.99
2023-07-14T23:50:08.973Z,49.99
2023-07-14T23:55:07.986Z,49.99
